Time;durP1;ratioP1;P1;durP2;ratioP2;P2;SDS_P1;SDS_P2;PMS_P1;PMS_P2;Temp;Humidity;BMP_temperature;BMP_pressure;BME280_temperature;BME280_humidity;BME280_pressure;Samples;Min_cycle;Max_cycle;Signal;HPM_P1;HPM_P2
2022/03/31 00:20:29;;;;;;;21.95;4.40;;;19.70;76.90;;;;;;5006517;28;20026;-70
2022/03/31 00:22:56;;;;;;;17.83;5.47;;;19.70;76.90;;;;;;5006762;28;20037;-71
2022/03/31 00:25:26;;;;;;;14.48;4.20;;;19.70;77.10;;;;;;5004774;28;20029;-71
2022/03/31 00:27:57;;;;;;;19.20;3.85;;;19.70;76.90;;;;;;5005897;28;20021;-70
2022/03/31 00:30:25;;;;;;;23.55;4.93;;;19.70;76.70;;;;;;5011171;28;20386;-70
2022/03/31 00:32:52;;;;;;;18.48;3.80;;;19.70;76.70;;;;;;5005062;28;20045;-71
2022/03/31 00:35:19;;;;;;;11.52;4.05;;;19.70;76.30;;;;;;5004366;28;20026;-70
2022/03/31 00:37:47;;;;;;;9.57;3.15;;;19.70;76.00;;;;;;5001387;28;20124;-70
2022/03/31 00:40:15;;;;;;;22.60;5.13;;;19.70;75.90;;;;;;5004560;28;20026;-70
2022/03/31 00:42:49;;;;;;;21.35;3.88;;;19.60;75.80;;;;;;5003687;28;20398;-71
2022/03/31 00:45:20;;;;;;;21.85;3.30;;;19.70;76.10;;;;;;5005516;28;20029;-70
2022/03/31 00:47:47;;;;;;;15.43;4.45;;;19.60;76.40;;;;;;5005837;28;20112;-70
2022/03/31 00:50:16;;;;;;;22.90;3.60;;;19.60;76.30;;;;;;5005748;28;20022;-71
2022/03/31 00:52:43;;;;;;;10.57;4.95;;;19.60;76.30;;;;;;5006510;28;20030;-70
2022/03/31 00:55:13;;;;;;;24.00;3.92;;;19.60;76.40;;;;;;5004869;28;20046;-70
2022/03/31 00:57:41;;;;;;;12.35;3.63;;;19.60;76.50;;;;;;5006732;28;20026;-70
2022/03/31 01:00:11;;;;;;;20.20;6.05;;;19.60;76.80;;;;;;5001355;28;20535;-71
2022/03/31 01:02:39;;;;;;;15.27;6.88;;;19.60;76.90;;;;;;5007151;28;20034;-71
2022/03/31 01:05:06;;;;;;;13.10;4.53;;;19.60;76.70;;;;;;5005766;28;20044;-71
2022/03/31 01:07:37;;;;;;;14.05;4.68;;;19.60;76.50;;;;;;5005286;28;20022;-71
2022/03/31 01:10:06;;;;;;;16.45;4.53;;;19.60;76.40;;;;;;5005674;28;20029;-71
2022/03/31 01:12:33;;;;;;;11.73;3.88;;;19.60;76.30;;;;;;5004783;28;20028;-71
2022/03/31 01:15:07;;;;;;;14.02;3.97;;;19.50;76.20;;;;;;5005463;28;20114;-71
2022/03/31 01:17:38;;;;;;;13.63;4.35;;;19.50;76.00;;;;;;5007936;28;20026;-70
2022/03/31 01:20:08;;;;;;;14.43;4.55;;;19.50;75.80;;;;;;5009220;28;20022;-71
2022/03/31 01:22:35;;;;;;;15.38;4.00;;;19.50;75.60;;;;;;5009252;28;20032;-71
2022/03/31 01:25:05;;;;;;;14.40;4.68;;;19.50;75.60;;;;;;5009859;28;20124;-70
2022/03/31 01:27:36;;;;;;;9.82;3.17;;;19.50;75.50;;;;;;5009544;28;20022;-71
2022/03/31 01:30:05;;;;;;;12.82;3.83;;;19.50;75.40;;;;;;5007432;28;20500;-70
2022/03/31 01:32:32;;;;;;;12.40;4.32;;;19.50;75.40;;;;;;5011527;28;20087;-70
2022/03/31 01:34:58;;;;;;;15.27;5.55;;;19.50;75.40;;;;;;5010363;28;20010;-70
2022/03/31 01:37:24;;;;;;;19.15;5.18;;;19.50;75.50;;;;;;5008040;28;20021;-70
2022/03/31 01:39:51;;;;;;;15.38;4.35;;;19.50;75.50;;;;;;5009854;28;20033;-70
2022/03/31 01:42:17;;;;;;;14.20;4.45;;;19.40;75.60;;;;;;5009624;28;20428;-70
2022/03/31 01:44:44;;;;;;;12.45;4.35;;;19.40;75.60;;;;;;5006427;28;20072;-70
2022/03/31 01:47:11;;;;;;;13.25;5.25;;;19.40;75.70;;;;;;5009036;28;20021;-70
2022/03/31 01:49:38;;;;;;;14.27;6.38;;;19.40;75.80;;;;;;5010297;28;20038;-70
2022/03/31 01:52:06;;;;;;;21.95;5.93;;;19.40;75.90;;;;;;5008517;28;20014;-70
2022/03/31 01:54:34;;;;;;;18.88;6.22;;;19.40;76.10;;;;;;5009507;28;20603;-70
2022/03/31 01:57:01;;;;;;;19.52;6.15;;;19.40;76.30;;;;;;5006059;28;20026;-70
2022/03/31 01:59:41;;;;;;;25.60;8.05;;;19.40;76.50;;;;;;5009140;28;20029;-70
2022/03/31 02:02:08;;;;;;;26.15;8.55;;;19.40;76.70;;;;;;5010349;28;20070;-70
2022/03/31 02:04:36;;;;;;;23.70;8.82;;;19.40;76.90;;;;;;5009182;28;20029;-70
2022/03/31 02:07:02;;;;;;;26.08;8.15;;;19.40;76.80;;;;;;5010282;28;20022;-70
2022/03/31 02:09:29;;;;;;;23.58;6.88;;;19.40;76.60;;;;;;5009744;28;20018;-70
2022/03/31 02:12:00;;;;;;;17.10;8.45;;;19.40;76.50;;;;;;5009322;28;20465;-70
2022/03/31 02:14:26;;;;;;;17.92;7.22;;;19.40;76.50;;;;;;5015512;28;20109;-70
2022/03/31 02:16:55;;;;;;;23.98;7.63;;;19.40;76.50;;;;;;5006468;28;20425;-70
2022/03/31 02:19:23;;;;;;;17.38;7.28;;;19.30;76.50;;;;;;5008442;28;20508;-70
2022/03/31 02:21:51;;;;;;;20.15;7.55;;;19.40;76.60;;;;;;5006691;28;20026;-70
2022/03/31 02:24:17;;;;;;;16.92;7.20;;;19.30;76.50;;;;;;5009515;28;20496;-70
2022/03/31 02:26:44;;;;;;;26.80;7.45;;;19.30;76.40;;;;;;5010140;28;20413;-70
2022/03/31 02:29:12;;;;;;;24.25;8.82;;;19.30;76.50;;;;;;5006722;28;20044;-70
2022/03/31 02:31:38;;;;;;;20.08;9.40;;;19.40;76.60;;;;;;5010033;28;20022;-70
2022/03/31 02:34:05;;;;;;;21.48;9.13;;;19.30;76.40;;;;;;5008104;28;20021;-70
2022/03/31 02:36:32;;;;;;;27.10;10.07;;;19.30;76.40;;;;;;5010049;28;20130;-70
2022/03/31 02:38:58;;;;;;;26.75;10.15;;;19.30;76.50;;;;;;5006015;28;20036;-69
2022/03/31 02:41:25;;;;;;;24.15;11.75;;;19.30;76.50;;;;;;5009643;28;20048;-69
2022/03/31 02:43:52;;;;;;;37.28;12.90;;;19.30;76.50;;;;;;5008901;28;20061;-69
2022/03/31 02:46:19;;;;;;;38.97;15.68;;;19.30;76.90;;;;;;5008191;28;20017;-69
2022/03/31 02:48:46;;;;;;;44.00;15.30;;;19.30;77.10;;;;;;5009601;28;20042;-69
2022/03/31 02:51:12;;;;;;;50.70;14.98;;;19.30;76.90;;;;;;5008363;28;20026;-69
2022/03/31 02:56:39;;;;;;;31.98;12.02;;;19.20;76.40;;;;;;4986349;28;20127;-70
2022/03/31 02:59:07;;;;;;;37.92;14.65;;;19.20;76.50;;;;;;5006575;28;20029;-70
2022/03/31 03:01:33;;;;;;;36.55;13.43;;;19.20;76.70;;;;;;5009204;28;20401;-70
2022/03/31 03:04:01;;;;;;;38.45;13.32;;;19.20;77.30;;;;;;5007978;28;20567;-70
2022/03/31 03:06:27;;;;;;;40.78;14.05;;;19.20;76.70;;;;;;5007748;28;20105;-70
2022/03/31 03:08:55;;;;;;;44.67;15.55;;;19.20;76.90;;;;;;5006628;28;20480;-70
2022/03/31 03:11:22;;;;;;;31.05;12.75;;;19.20;77.20;;;;;;5007611;28;20030;-69
2022/03/31 03:13:50;;;;;;;41.85;13.23;;;19.10;77.40;;;;;;5004324;28;20060;-69
2022/03/31 03:16:16;;;;;;;33.70;11.90;;;19.10;77.30;;;;;;5008191;28;20029;-68
2022/03/31 03:18:43;;;;;;;41.17;14.10;;;19.10;77.20;;;;;;5009071;28;20033;-69
2022/03/31 03:21:09;;;;;;;33.53;12.73;;;19.20;77.10;;;;;;5007309;28;20029;-69
2022/03/31 03:23:37;;;;;;;32.90;9.93;;;19.10;76.90;;;;;;5007591;28;20033;-70
2022/03/31 03:26:05;;;;;;;31.63;12.25;;;19.20;76.90;;;;;;5008294;28;20022;-69
2022/03/31 03:28:35;;;;;;;33.15;11.35;;;19.10;76.90;;;;;;5007348;28;20068;-70
2022/03/31 03:31:04;;;;;;;41.00;12.57;;;19.10;76.90;;;;;;5005432;28;20022;-70
2022/03/31 03:33:31;;;;;;;23.95;9.80;;;19.10;77.00;;;;;;5008943;28;20122;-69
2022/03/31 03:35:59;;;;;;;34.40;10.07;;;19.10;77.00;;;;;;5005743;28;20049;-69
2022/03/31 03:38:26;;;;;;;34.28;11.30;;;19.10;76.90;;;;;;5007309;28;20018;-69
2022/03/31 03:40:53;;;;;;;26.30;9.57;;;19.10;76.90;;;;;;5006163;28;20025;-69
2022/03/31 03:43:20;;;;;;;44.25;10.50;;;19.10;76.80;;;;;;5005006;28;20029;-69
2022/03/31 03:45:47;;;;;;;32.17;7.57;;;19.10;76.80;;;;;;5006188;28;20017;-69
2022/03/31 03:48:13;;;;;;;35.85;8.48;;;19.10;76.80;;;;;;5005541;28;20554;-69
2022/03/31 03:50:40;;;;;;;25.13;7.30;;;19.10;76.80;;;;;;5005927;28;20018;-68
2022/03/31 03:53:08;;;;;;;44.63;9.77;;;19.10;76.90;;;;;;5007415;28;20473;-69
2022/03/31 03:55:36;;;;;;;27.98;7.75;;;19.00;77.00;;;;;;5005215;28;20037;-71
2022/03/31 03:58:03;;;;;;;30.10;8.13;;;19.00;76.90;;;;;;5007773;28;20045;-70
2022/03/31 04:00:30;;;;;;;31.55;12.20;;;19.00;76.50;;;;;;5003259;28;20034;-69
2022/03/31 04:02:57;;;;;;;35.42;21.55;;;19.00;77.80;;;;;;5007513;28;20033;-71
2022/03/31 04:05:24;;;;;;;30.23;13.23;;;19.00;78.20;;;;;;5004528;28;20024;-69
2022/03/31 04:07:51;;;;;;;23.35;8.38;;;19.00;77.30;;;;;;5007299;28;20034;-69
2022/03/31 04:10:17;;;;;;;26.15;9.23;;;18.90;77.80;;;;;;5005042;28;20500;-70
2022/03/31 04:12:44;;;;;;;25.15;8.75;;;18.90;77.90;;;;;;5007828;28;20084;-69
2022/03/31 04:15:13;;;;;;;20.65;6.70;;;18.90;77.90;;;;;;5008312;28;20034;-70
2022/03/31 04:17:42;;;;;;;31.27;15.98;;;18.90;77.90;;;;;;5005601;28;20152;-68
2022/03/31 04:20:09;;;;;;;49.45;30.17;;;18.90;77.80;;;;;;5007470;28;20028;-68
2022/03/31 04:22:37;;;;;;;37.70;19.15;;;18.80;77.80;;;;;;5003591;28;20549;-68
2022/03/31 04:25:08;;;;;;;27.35;12.88;;;18.90;77.90;;;;;;5018102;28;20026;-68
2022/03/31 04:27:36;;;;;;;29.23;9.18;;;18.80;78.00;;;;;;5001866;28;20037;-68
2022/03/31 04:30:10;;;;;;;21.45;6.65;;;18.90;78.00;;;;;;5006726;28;20156;-69
2022/03/31 04:32:38;;;;;;;21.33;6.70;;;18.90;77.80;;;;;;5006615;28;20014;-69
2022/03/31 04:35:06;;;;;;;24.15;6.13;;;18.90;77.80;;;;;;5004525;28;20068;-70
2022/03/31 04:37:34;;;;;;;20.42;7.18;;;18.90;77.80;;;;;;5007386;28;20376;-71
2022/03/31 04:40:02;;;;;;;16.83;4.90;;;18.90;77.80;;;;;;5002974;28;20022;-70
2022/03/31 04:42:28;;;;;;;15.93;5.43;;;18.90;77.80;;;;;;5007781;28;20060;-70
2022/03/31 04:44:55;;;;;;;16.52;5.55;;;18.90;77.90;;;;;;5007649;28;20034;-69
2022/03/31 04:47:22;;;;;;;18.45;5.65;;;18.90;77.90;;;;;;5006526;28;20084;-70
2022/03/31 04:49:49;;;;;;;25.60;6.60;;;18.90;77.80;;;;;;5005939;28;20424;-69
2022/03/31 04:52:15;;;;;;;22.77;6.40;;;18.90;77.80;;;;;;5005372;28;20029;-70
2022/03/31 04:54:45;;;;;;;20.35;5.60;;;18.90;77.90;;;;;;5007745;28;20102;-71
2022/03/31 04:57:16;;;;;;;20.30;5.78;;;18.90;78.00;;;;;;5010033;28;20101;-70
2022/03/31 04:59:43;;;;;;;20.33;6.55;;;18.90;78.00;;;;;;5009937;28;20030;-70
2022/03/31 05:02:49;;;;;;;24.85;6.45;;;18.90;78.00;;;;;;5007747;28;20109;-70
2022/03/31 05:05:55;;;;;;;19.75;6.28;;;18.90;78.10;;;;;;5005297;28;20054;-70
2022/03/31 05:09:04;;;;;;;34.35;7.25;;;18.90;78.10;;;;;;5008813;28;20018;-70
2022/03/31 05:12:12;;;;;;;20.65;6.40;;;18.90;78.20;;;;;;5008315;28;20025;-70
2022/03/31 05:15:18;;;;;;;17.58;5.75;;;18.90;78.20;;;;;;5007186;28;20390;-70
2022/03/31 05:18:24;;;;;;;24.45;6.85;;;18.90;78.20;;;;;;5007550;28;20036;-70
2022/03/31 05:21:30;;;;;;;21.65;6.32;;;18.90;78.30;;;;;;5008663;28;20033;-70
2022/03/31 05:24:37;;;;;;;16.80;6.47;;;18.90;78.30;;;;;;5008158;28;20041;-70
2022/03/31 05:27:43;;;;;;;27.02;6.20;;;18.90;78.40;;;;;;5007435;28;20026;-70
2022/03/31 05:30:13;;;;;;;23.48;6.70;;;18.90;78.50;;;;;;5007574;28;20029;-70
2022/03/31 05:32:40;;;;;;;17.63;6.30;;;18.90;78.70;;;;;;5006390;28;20010;-70
2022/03/31 05:35:08;;;;;;;26.02;6.85;;;19.00;78.70;;;;;;5009637;28;20022;-70
2022/03/31 05:37:35;;;;;;;21.40;6.57;;;19.00;78.90;;;;;;5009803;28;20022;-70
2022/03/31 05:40:04;;;;;;;16.83;6.63;;;19.00;79.00;;;;;;5010264;28;20056;-70
2022/03/31 05:42:32;;;;;;;22.67;5.60;;;19.00;79.10;;;;;;5009781;28;20042;-70
2022/03/31 05:45:00;;;;;;;18.70;5.63;;;19.00;79.00;;;;;;5009128;28;20018;-70
2022/03/31 05:47:26;;;;;;;21.27;7.57;;;19.00;79.00;;;;;;5010038;28;20116;-70
2022/03/31 05:49:54;;;;;;;28.92;6.65;;;19.00;79.10;;;;;;5010030;28;20080;-70
2022/03/31 05:52:21;;;;;;;22.20;7.97;;;19.00;79.10;;;;;;5008960;28;20026;-70
2022/03/31 05:54:48;;;;;;;23.33;7.28;;;19.00;79.40;;;;;;5007320;28;20041;-70
2022/03/31 05:57:15;;;;;;;20.80;7.25;;;19.00;80.10;;;;;;5006671;28;20050;-70
2022/03/31 05:59:42;;;;;;;25.05;6.20;;;19.10;80.00;;;;;;5009739;28;20470;-71
2022/03/31 06:02:11;;;;;;;20.88;7.93;;;19.10;80.10;;;;;;5009296;28;20030;-70
2022/03/31 06:04:38;;;;;;;20.17;6.47;;;19.10;80.20;;;;;;5009571;28;20497;-71
2022/03/31 06:07:06;;;;;;;21.88;6.60;;;19.20;80.30;;;;;;5009106;28;20029;-70
2022/03/31 06:09:33;;;;;;;23.05;5.95;;;19.20;80.30;;;;;;5008990;28;20068;-70
2022/03/31 06:11:59;;;;;;;24.30;6.35;;;19.20;80.40;;;;;;5009659;28;20069;-71
2022/03/31 06:14:26;;;;;;;24.10;7.40;;;19.20;80.50;;;;;;5005840;28;20018;-71
2022/03/31 06:16:53;;;;;;;21.17;7.60;;;19.30;80.70;;;;;;5009541;28;20476;-71
2022/03/31 06:19:19;;;;;;;22.38;6.55;;;19.30;80.70;;;;;;5007312;28;20022;-70
2022/03/31 06:21:46;;;;;;;30.40;7.07;;;19.30;80.80;;;;;;5009945;28;20079;-71
2022/03/31 06:24:12;;;;;;;25.58;7.57;;;19.30;80.70;;;;;;5008591;28;20021;-71
2022/03/31 06:26:39;;;;;;;22.83;7.65;;;19.30;80.70;;;;;;5008575;28;20350;-71
2022/03/31 06:29:06;;;;;;;19.73;6.05;;;19.30;80.50;;;;;;5008402;28;20025;-71
2022/03/31 06:31:33;;;;;;;28.83;7.32;;;19.30;80.40;;;;;;5005687;28;20028;-71
2022/03/31 06:34:00;;;;;;;15.85;6.10;;;19.40;80.40;;;;;;5008726;28;20017;-71
2022/03/31 06:36:29;;;;;;;24.33;6.18;;;19.40;80.60;;;;;;5008527;28;20030;-71
2022/03/31 06:38:55;;;;;;;29.95;6.45;;;19.40;80.60;;;;;;5010272;28;20481;-71
2022/03/31 06:41:21;;;;;;;26.65;8.13;;;19.40;80.70;;;;;;5008106;28;20025;-71
2022/03/31 06:43:49;;;;;;;20.63;6.28;;;19.40;80.50;;;;;;5007821;28;20064;-70
2022/03/31 06:46:17;;;;;;;22.02;6.90;;;19.50;80.30;;;;;;5008487;28;20030;-71
2022/03/31 06:48:48;;;;;;;24.77;7.22;;;19.50;80.20;;;;;;5008643;28;20026;-71
2022/03/31 06:51:16;;;;;;;31.75;6.75;;;19.50;80.40;;;;;;5008869;28;20025;-71
2022/03/31 06:53:44;;;;;;;26.95;6.72;;;19.50;80.40;;;;;;5008445;28;20425;-71
2022/03/31 06:56:16;;;;;;;20.70;6.45;;;19.50;80.30;;;;;;5009045;28;20448;-71
2022/03/31 06:58:44;;;;;;;21.83;6.25;;;19.60;80.20;;;;;;5008120;28;20054;-70
2022/03/31 07:01:12;;;;;;;21.85;5.68;;;19.60;80.00;;;;;;5007782;28;20017;-71
2022/03/31 07:03:38;;;;;;;21.50;5.32;;;19.60;79.70;;;;;;5008545;28;20018;-71
2022/03/31 07:06:06;;;;;;;23.27;7.05;;;19.60;79.40;;;;;;5008440;28;20523;-70
2022/03/31 07:08:34;;;;;;;21.58;6.13;;;19.70;79.30;;;;;;5008165;28;20026;-71
2022/03/31 07:11:03;;;;;;;23.80;6.25;;;19.70;79.10;;;;;;5006846;28;20389;-70
2022/03/31 07:13:30;;;;;;;17.65;5.28;;;19.80;78.90;;;;;;5007097;28;20022;-70
2022/03/31 07:15:57;;;;;;;21.55;5.78;;;19.80;78.30;;;;;;5007249;28;20033;-70
2022/03/31 07:18:24;;;;;;;22.63;5.03;;;19.80;77.30;;;;;;5007968;28;20045;-70
2022/03/31 07:20:50;;;;;;;18.45;6.00;;;19.90;77.10;;;;;;5008312;28;20038;-71
2022/03/31 07:23:25;;;;;;;19.25;6.05;;;19.90;76.90;;;;;;5008429;28;20030;-70
2022/03/31 07:25:59;;;;;;;20.85;7.32;;;20.00;76.80;;;;;;5006585;28;20022;-71
2022/03/31 07:28:26;;;;;;;15.73;5.93;;;20.00;76.30;;;;;;5005719;28;20098;-72
2022/03/31 07:30:53;;;;;;;19.60;5.40;;;20.00;75.60;;;;;;5008527;28;20109;-72
2022/03/31 07:33:21;;;;;;;23.60;5.95;;;20.10;75.20;;;;;;5004025;28;20030;-72
2022/03/31 07:35:48;;;;;;;25.17;6.72;;;20.10;75.00;;;;;;5005510;28;20020;-71
2022/03/31 07:38:16;;;;;;;20.15;4.97;;;20.10;74.90;;;;;;5005676;28;20037;-72
2022/03/31 07:40:43;;;;;;;24.00;5.10;;;20.10;74.40;;;;;;5007524;28;20032;-72
2022/03/31 07:43:10;;;;;;;23.35;7.15;;;20.20;74.20;;;;;;5008183;28;20030;-71
2022/03/31 07:45:38;;;;;;;21.73;5.05;;;20.20;74.10;;;;;;5004926;28;20029;-71
2022/03/31 07:48:05;;;;;;;23.95;5.95;;;20.30;73.90;;;;;;5008161;28;20024;-71
2022/03/31 07:50:34;;;;;;;21.98;5.20;;;20.30;73.50;;;;;;5007047;28;20045;-71
2022/03/31 07:53:00;;;;;;;19.70;5.05;;;20.30;73.00;;;;;;5003820;28;20125;-71
2022/03/31 07:55:27;;;;;;;20.30;4.80;;;20.30;72.80;;;;;;5008603;28;20424;-71
2022/03/31 07:57:54;;;;;;;18.42;4.85;;;20.30;72.80;;;;;;5006423;28;20033;-71
2022/03/31 08:00:21;;;;;;;24.65;5.40;;;20.40;72.70;;;;;;5006822;28;20682;-72
2022/03/31 08:02:50;;;;;;;13.00;3.83;;;20.40;72.40;;;;;;5006885;28;20029;-71
2022/03/31 08:05:27;;;;;;;15.52;5.45;;;20.40;71.40;;;;;;5005928;28;20071;-71
2022/03/31 08:07:54;;;;;;;20.83;3.95;;;20.50;71.00;;;;;;5006720;28;20034;-71
2022/03/31 08:10:22;;;;;;;11.40;3.53;;;20.50;70.60;;;;;;5007653;28;20034;-71
2022/03/31 08:12:49;;;;;;;13.90;4.90;;;20.50;70.70;;;;;;5006285;28;20120;-71
2022/03/31 08:15:18;;;;;;;31.27;5.20;;;20.60;71.00;;;;;;5006482;28;20068;-71
2022/03/31 08:17:46;;;;;;;31.85;4.90;;;20.60;71.20;;;;;;5007953;28;20030;-72
2022/03/31 08:20:13;;;;;;;16.85;4.57;;;20.60;70.10;;;;;;5003699;28;20030;-71
2022/03/31 08:22:40;;;;;;;13.50;3.00;;;20.60;69.40;;;;;;5007870;28;20038;-71
2022/03/31 08:25:09;;;;;;;19.48;5.18;;;20.70;69.00;;;;;;5004969;28;20010;-71
2022/03/31 08:27:37;;;;;;;19.33;3.83;;;20.70;68.50;;;;;;5006713;28;20030;-72
2022/03/31 08:30:11;;;;;;;18.85;3.38;;;20.70;67.90;;;;;;5005528;28;20073;-71
2022/03/31 08:32:39;;;;;;;19.13;3.33;;;20.80;67.90;;;;;;5006256;28;20030;-71
2022/03/31 08:35:08;;;;;;;12.30;3.20;;;20.80;67.70;;;;;;5005360;28;20018;-71
2022/03/31 08:37:35;;;;;;;14.20;3.92;;;20.90;67.70;;;;;;5006566;28;20014;-71
2022/03/31 08:40:02;;;;;;;14.35;3.83;;;20.90;67.30;;;;;;5006738;28;20073;-71
2022/03/31 08:42:30;;;;;;;12.45;3.13;;;20.90;67.20;;;;;;5007359;28;20650;-70
2022/03/31 08:44:59;;;;;;;13.23;3.13;;;21.00;67.00;;;;;;5006578;28;20469;-71
2022/03/31 08:47:26;;;;;;;10.18;3.20;;;21.00;67.10;;;;;;5007634;28;20033;-71
2022/03/31 08:49:55;;;;;;;16.92;2.97;;;21.10;66.50;;;;;;5006576;28;20033;-71
2022/03/31 08:52:23;;;;;;;10.60;2.97;;;21.10;66.30;;;;;;5005457;28;20060;-71
2022/03/31 08:54:50;;;;;;;13.52;2.85;;;21.10;66.00;;;;;;5005842;28;20152;-72
2022/03/31 08:57:17;;;;;;;12.65;3.05;;;21.10;65.60;;;;;;5007287;28;20389;-71
2022/03/31 08:59:44;;;;;;;15.20;2.85;;;21.20;65.70;;;;;;5006261;28;20018;-71
2022/03/31 09:02:23;;;;;;;17.60;3.65;;;21.30;65.70;;;;;;5005673;28;20065;-71
2022/03/31 09:05:09;;;;;;;13.00;3.35;;;21.30;65.50;;;;;;5005896;28;20026;-71
2022/03/31 09:07:53;;;;;;;14.10;3.38;;;21.40;65.70;;;;;;5006374;28;20006;-71
2022/03/31 09:11:05;;;;;;;15.80;3.83;;;21.40;65.40;;;;;;5005770;28;20021;-71
2022/03/31 09:14:11;;;;;;;21.50;5.15;;;21.50;65.00;;;;;;5007375;28;20513;-71
2022/03/31 09:17:17;;;;;;;12.35;2.28;;;21.50;64.50;;;;;;5005962;28;20057;-71
2022/03/31 09:19:43;;;;;;;16.17;2.88;;;21.50;64.10;;;;;;5006431;28;20029;-71
2022/03/31 09:22:10;;;;;;;15.10;2.92;;;21.60;64.00;;;;;;5006478;28;20101;-71
2022/03/31 09:24:37;;;;;;;12.48;2.90;;;21.60;63.80;;;;;;5005868;28;20022;-71
2022/03/31 09:27:04;;;;;;;8.30;2.60;;;21.60;63.30;;;;;;5006250;28;20417;-71
2022/03/31 09:29:33;;;;;;;9.93;2.80;;;21.70;63.00;;;;;;5004785;28;20473;-72
2022/03/31 09:32:08;;;;;;;13.18;2.65;;;21.70;62.90;;;;;;5006787;28;20105;-71
2022/03/31 09:34:48;;;;;;;13.13;3.13;;;21.80;62.60;;;;;;5006937;28;20362;-72
2022/03/31 09:37:15;;;;;;;6.82;2.80;;;21.80;63.30;;;;;;5004963;28;20030;-72
2022/03/31 09:39:42;;;;;;;12.40;3.05;;;21.90;62.30;;;;;;5010545;28;20350;-72
2022/03/31 09:42:17;;;;;;;8.25;2.47;;;21.90;62.20;;;;;;5009694;28;20424;-71
2022/03/31 09:44:43;;;;;;;;;;;22.00;62.40;;;;;;5011654;28;20492;-71
2022/03/31 09:47:10;;;;;;;14.40;3.28;;;22.00;62.40;;;;;;5009793;28;20299;-72
2022/03/31 09:49:37;;;;;;;17.98;4.10;;;22.10;62.60;;;;;;5006063;28;20018;-72
2022/03/31 09:52:07;;;;;;;9.25;2.28;;;22.10;61.60;;;;;;5010130;28;20044;-71
2022/03/31 09:54:35;;;;;;;14.38;3.17;;;22.20;61.30;;;;;;5007404;28;20052;-72
2022/03/31 09:57:07;;;;;;;13.18;3.95;;;22.20;61.20;;;;;;5009503;28;20045;-72
2022/03/31 09:59:38;;;;;;;12.70;2.97;;;22.20;60.90;;;;;;5009620;28;20139;-72
2022/03/31 10:02:05;;;;;;;26.20;3.67;;;22.30;60.80;;;;;;5010647;28;20096;-71
2022/03/31 10:04:33;;;;;;;8.45;2.35;;;22.30;60.90;;;;;;5007959;28;20537;-71
2022/03/31 10:07:00;;;;;;;17.27;3.25;;;22.40;60.80;;;;;;5008379;28;20022;-72
2022/03/31 10:09:26;;;;;;;14.55;3.33;;;22.40;60.80;;;;;;5006917;28;20022;-71
2022/03/31 10:12:26;;;;;;;11.80;3.15;;;22.40;60.50;;;;;;5008792;28;20413;-71
2022/03/31 10:15:05;;;;;;;11.38;2.38;;;22.50;60.30;;;;;;5008393;28;20061;-71
2022/03/31 10:17:33;;;;;;;9.70;2.55;;;22.60;59.90;;;;;;5007806;28;20050;-72
2022/03/31 10:20:14;;;;;;;9.18;2.67;;;22.70;59.40;;;;;;5007774;28;20067;-71
2022/03/31 10:25:40;;;;;;;10.88;3.10;;;22.80;59.80;;;;;;5006764;28;20028;-71
2022/03/31 10:28:18;;;;;;;10.20;2.72;;;22.80;59.60;;;;;;5007579;28;20022;-71
2022/03/31 10:31:09;;;;;;;12.38;3.78;;;22.90;59.30;;;;;;5007885;28;20017;-72
2022/03/31 10:33:38;;;;;;;12.27;2.88;;;23.00;59.20;;;;;;5008511;28;20120;-72
2022/03/31 10:36:12;;;;;;;12.02;3.00;;;23.00;59.00;;;;;;5008104;28;20022;-72
2022/03/31 10:38:57;;;;;;;7.80;2.90;;;23.10;58.80;;;;;;5007231;28;20022;-72
2022/03/31 10:41:32;;;;;;;11.77;3.85;;;23.10;58.60;;;;;;5008755;28;20026;-71
2022/03/31 10:43:58;;;;;;;;;;;23.20;58.40;;;;;;5006727;28;20034;-71
2022/03/31 10:46:28;;;;;;;10.70;2.72;;;23.30;57.90;;;;;;5007911;28;19921;-72
2022/03/31 10:48:58;;;;;;;6.68;1.73;;;23.30;58.10;;;;;;5006047;28;20034;-72
2022/03/31 10:51:38;;;;;;;9.68;2.30;;;23.40;57.80;;;;;;5007802;28;20377;-72
2022/03/31 10:54:09;;;;;;;8.20;1.98;;;23.40;57.60;;;;;;5008422;28;20021;-71
2022/03/31 10:56:35;;;;;;;14.98;2.38;;;23.50;57.40;;;;;;5009187;28;20042;-71
2022/03/31 10:59:04;;;;;;;14.05;2.53;;;23.50;57.20;;;;;;5008763;28;20018;-71
2022/03/31 11:01:35;;;;;;;9.85;2.35;;;23.60;56.90;;;;;;5009506;28;20022;-71
2022/03/31 11:04:08;;;;;;;7.03;2.38;;;23.60;56.90;;;;;;5006475;28;20412;-72
2022/03/31 11:06:49;;;;;;;7.72;2.53;;;23.60;56.80;;;;;;5009528;28;20026;-71
2022/03/31 11:09:29;;;;;;;19.77;3.50;;;23.60;56.60;;;;;;5005602;28;20049;-71
2022/03/31 11:11:56;;;;;;;15.07;2.72;;;23.60;56.60;;;;;;5007614;28;20017;-71
2022/03/31 11:14:23;;;;;;;6.40;2.20;;;23.60;56.30;;;;;;5009088;28;20026;-70
2022/03/31 11:16:50;;;;;;;10.88;2.47;;;23.50;56.00;;;;;;5006629;28;20116;-71
2022/03/31 11:19:19;;;;;;;8.98;3.03;;;23.50;55.80;;;;;;5009100;28;20099;-71
2022/03/31 11:21:47;;;;;;;25.10;2.88;;;23.50;55.40;;;;;;5007653;28;20014;-72
2022/03/31 11:24:14;;;;;;;11.25;3.00;;;23.50;55.70;;;;;;5008821;28;20045;-71
2022/03/31 11:26:44;;;;;;;40.70;4.15;;;23.40;55.30;;;;;;5006110;28;20095;-71
2022/03/31 11:29:13;;;;;;;14.23;3.22;;;23.30;55.80;;;;;;5007574;28;20477;-71
2022/03/31 11:31:49;;;;;;;17.73;4.05;;;23.30;56.10;;;;;;5007751;28;20018;-71
2022/03/31 11:34:22;;;;;;;19.98;2.63;;;23.20;56.30;;;;;;5007281;28;20018;-71
2022/03/31 11:36:53;;;;;;;16.52;2.20;;;23.20;55.80;;;;;;5006954;28;20026;-71
2022/03/31 11:39:21;;;;;;;11.50;2.45;;;23.10;55.80;;;;;;5007343;28;20021;-71
2022/03/31 11:41:48;;;;;;;12.40;2.70;;;23.00;55.40;;;;;;5007688;28;20495;-71
2022/03/31 11:44:14;;;;;;;10.60;3.08;;;23.00;55.60;;;;;;5007218;28;20034;-70
2022/03/31 11:46:42;;;;;;;21.88;2.80;;;22.90;55.70;;;;;;5006896;28;20107;-71
2022/03/31 11:49:24;;;;;;;12.50;3.67;;;23.00;55.70;;;;;;5007985;28;20026;-71
2022/03/31 11:51:55;;;;;;;14.63;2.92;;;23.00;56.30;;;;;;5005754;28;20401;-71
2022/03/31 11:54:23;;;;;;;8.68;2.38;;;23.00;56.30;;;;;;5008036;28;20631;-71
2022/03/31 11:57:02;;;;;;;8.60;2.55;;;23.00;56.30;;;;;;5006491;28;20083;-71
2022/03/31 11:59:29;;;;;;;10.77;2.83;;;23.10;56.00;;;;;;5005865;28;20018;-71
2022/03/31 12:01:56;;;;;;;9.32;2.85;;;23.10;55.90;;;;;;5005003;28;20022;-72
2022/03/31 12:04:29;;;;;;;9.25;2.35;;;23.20;56.00;;;;;;5005576;28;20034;-71
2022/03/31 12:06:57;;;;;;;11.40;2.42;;;23.20;56.10;;;;;;5006238;28;20053;-71
2022/03/31 12:09:26;;;;;;;11.10;2.45;;;23.40;56.10;;;;;;5008173;28;20100;-70
2022/03/31 12:11:53;;;;;;;7.93;2.40;;;23.40;55.80;;;;;;5007299;28;20033;-71
2022/03/31 12:14:20;;;;;;;14.10;2.95;;;23.50;55.50;;;;;;5007379;28;20018;-71
2022/03/31 12:16:51;;;;;;;7.90;2.33;;;23.50;55.50;;;;;;5005859;28;20022;-71
2022/03/31 12:19:19;;;;;;;12.00;2.83;;;23.50;55.80;;;;;;5006995;28;20385;-71
2022/03/31 12:21:48;;;;;;;11.35;3.15;;;23.60;55.80;;;;;;5003684;28;20104;-71
2022/03/31 12:24:15;;;;;;;12.68;3.03;;;23.60;55.60;;;;;;5006525;28;20064;-71
2022/03/31 12:26:57;;;;;;;10.85;2.70;;;23.70;55.80;;;;;;5006281;28;20021;-70
2022/03/31 12:29:28;;;;;;;13.88;3.85;;;23.70;56.20;;;;;;5005757;28;20374;-71
2022/03/31 12:32:09;;;;;;;14.23;2.47;;;23.70;55.90;;;;;;5006502;28;20019;-71
2022/03/31 12:34:39;;;;;;;11.43;2.45;;;23.80;55.90;;;;;;5003941;28;20026;-71
2022/03/31 12:37:06;;;;;;;11.70;2.72;;;23.80;55.90;;;;;;5007841;28;20018;-71
2022/03/31 12:39:43;;;;;;;12.15;2.75;;;23.90;55.60;;;;;;5005964;28;20018;-71
2022/03/31 12:42:11;;;;;;;19.50;4.03;;;23.90;55.60;;;;;;5007371;28;20078;-70
2022/03/31 12:44:41;;;;;;;6.88;2.28;;;23.90;55.60;;;;;;5006141;28;20457;-71
2022/03/31 12:47:10;;;;;;;13.25;2.70;;;24.00;55.30;;;;;;5006755;28;20115;-70
2022/03/31 12:49:39;;;;;;;15.25;2.42;;;24.00;55.10;;;;;;5006898;28;20429;-70
2022/03/31 12:52:17;;;;;;;8.57;2.58;;;24.00;55.10;;;;;;5005762;28;20053;-70
2022/03/31 12:54:53;;;;;;;15.02;3.65;;;24.00;55.00;;;;;;5008212;28;20549;-70
2022/03/31 12:57:29;;;;;;;12.10;2.60;;;24.00;54.80;;;;;;5007125;28;20477;-71
2022/03/31 13:00:09;;;;;;;10.80;2.25;;;24.00;54.60;;;;;;5004788;28;20440;-71
2022/03/31 13:02:37;;;;;;;13.02;2.45;;;24.10;54.80;;;;;;5004180;28;20061;-71
2022/03/31 13:05:05;;;;;;;7.63;2.35;;;24.10;54.50;;;;;;5004566;28;20690;-70
2022/03/31 13:07:32;;;;;;;10.95;2.72;;;24.10;54.60;;;;;;5007372;28;20025;-71
2022/03/31 13:10:00;;;;;;;9.80;3.25;;;24.10;54.60;;;;;;5021536;28;20436;-70
2022/03/31 13:12:29;;;;;;;8.63;2.22;;;24.20;54.50;;;;;;5006939;28;20635;-71
2022/03/31 13:14:57;;;;;;;9.13;2.42;;;24.20;54.40;;;;;;5010697;28;20010;-71
2022/03/31 13:17:24;;;;;;;12.25;2.47;;;24.20;54.00;;;;;;5010138;28;20018;-71
2022/03/31 13:19:52;;;;;;;8.20;2.78;;;24.20;53.80;;;;;;5007719;28;20018;-71